createdAt,value
2019-01-02T00:02:04.127Z,3.47
2019-01-02T00:04:35.015Z,3.44
2019-01-02T00:07:05.932Z,3.48
2019-01-02T00:09:37.228Z,3.51
2019-01-02T00:12:09.135Z,3.61
2019-01-02T00:14:40.395Z,3.45
2019-01-02T00:17:11.643Z,3.53
2019-01-02T00:19:42.535Z,3.59
2019-01-02T00:22:13.452Z,3.59
2019-01-02T00:24:44.413Z,3.50
2019-01-02T00:27:15.423Z,3.51
2019-01-02T00:29:46.590Z,3.60
2019-01-02T00:32:17.812Z,3.59
2019-01-02T00:34:48.708Z,3.54
2019-01-02T00:37:19.647Z,3.67
2019-01-02T00:39:50.672Z,3.57
2019-01-02T00:42:21.680Z,3.56
2019-01-02T00:44:52.723Z,3.38
2019-01-02T00:47:24.012Z,3.53
2019-01-02T00:49:55.397Z,3.32
2019-01-02T00:52:26.767Z,3.31
2019-01-02T00:54:57.987Z,3.16
2019-01-02T00:57:29.177Z,3.25
2019-01-02T01:00:00.517Z,3.43
2019-01-02T01:02:32.129Z,3.36
2019-01-02T01:05:03.123Z,3.35
2019-01-02T01:07:34.743Z,3.48
2019-01-02T01:10:06.985Z,3.55
2019-01-02T01:12:38.283Z,3.52
2019-01-02T01:15:09.794Z,3.39
2019-01-02T01:17:41.187Z,3.51
2019-01-02T01:20:13.835Z,3.45
2019-01-02T01:22:45.188Z,3.45
2019-01-02T01:25:16.191Z,3.41
2019-01-02T01:27:47.126Z,3.45
2019-01-02T01:30:18.516Z,3.49
2019-01-02T01:32:49.754Z,3.37
2019-01-02T01:35:21.009Z,3.37
2019-01-02T01:37:55.292Z,3.27
2019-01-02T01:40:26.356Z,3.30
2019-01-02T01:42:57.640Z,3.11
2019-01-02T01:45:28.815Z,3.04
2019-01-02T01:47:59.784Z,3.07
2019-01-02T01:50:31.049Z,2.96
2019-01-02T01:53:02.158Z,2.98
2019-01-02T01:55:33.116Z,2.90
2019-01-02T01:58:04.502Z,2.98
2019-01-02T02:00:35.537Z,2.92
2019-01-02T02:03:06.420Z,2.99
2019-01-02T02:05:37.830Z,2.92
2019-01-02T02:08:08.771Z,2.83
2019-01-02T02:10:39.680Z,2.91
2019-01-02T02:13:10.848Z,2.86
2019-01-02T02:15:41.852Z,2.91
2019-01-02T02:18:12.872Z,2.82
2019-01-02T02:20:44.397Z,2.84
2019-01-02T02:23:15.306Z,2.83
2019-01-02T02:25:46.703Z,2.81
2019-01-02T02:28:18.027Z,2.88
2019-01-02T02:30:48.904Z,2.93
2019-01-02T02:33:20.499Z,2.86
2019-01-02T02:35:51.774Z,2.94
2019-01-02T02:38:23.063Z,2.82
2019-01-02T02:40:54.362Z,2.79
2019-01-02T02:43:26.164Z,2.81
2019-01-02T02:45:57.064Z,2.86
2019-01-02T02:48:28.263Z,2.81
2019-01-02T02:50:59.651Z,2.71
2019-01-02T02:53:30.894Z,2.84
2019-01-02T02:56:02.348Z,2.87
2019-01-02T02:58:33.780Z,2.89
2019-01-02T03:01:05.327Z,2.91
2019-01-02T03:03:36.591Z,2.82
2019-01-02T03:06:07.540Z,2.82
2019-01-02T03:08:38.532Z,2.77
2019-01-02T03:11:09.450Z,2.88
2019-01-02T03:13:40.768Z,2.78
2019-01-02T03:16:11.926Z,2.86
2019-01-02T03:18:43.116Z,2.93
2019-01-02T03:21:14.380Z,2.83
2019-01-02T03:23:45.260Z,2.91
2019-01-02T03:26:16.233Z,2.83
2019-01-02T03:28:47.197Z,2.79
2019-01-02T03:31:18.488Z,2.77
2019-01-02T03:33:49.653Z,2.78
2019-01-02T03:36:20.656Z,2.72
2019-01-02T03:38:51.565Z,2.81
2019-01-02T03:41:22.515Z,2.71
2019-01-02T03:43:53.484Z,2.79
2019-01-02T03:46:24.365Z,2.73
2019-01-02T03:48:55.237Z,2.69
2019-01-02T03:51:26.490Z,2.75
2019-01-02T03:53:57.404Z,2.77
2019-01-02T03:56:28.388Z,2.78
2019-01-02T03:58:59.336Z,2.83
2019-01-02T04:01:30.272Z,2.84
2019-01-02T04:04:01.288Z,2.78
2019-01-02T04:06:32.599Z,2.69
2019-01-02T04:09:03.886Z,2.73
2019-01-02T04:11:34.776Z,2.68
2019-01-02T04:14:05.675Z,2.63
2019-01-02T04:16:36.619Z,2.69
2019-01-02T04:19:07.538Z,2.62
2019-01-02T04:21:38.422Z,2.67
2019-01-02T04:24:09.312Z,2.60
2019-01-02T04:26:40.498Z,2.52
2019-01-02T04:29:11.433Z,2.43
2019-01-02T04:31:42.335Z,2.61
2019-01-02T04:34:13.216Z,2.52
2019-01-02T04:36:44.443Z,2.49
2019-01-02T04:39:15.341Z,2.49
2019-01-02T04:41:46.255Z,2.47
2019-01-02T04:44:17.147Z,2.52
2019-01-02T04:46:48.063Z,2.45
2019-01-02T04:49:19.222Z,2.47
2019-01-02T04:51:50.101Z,2.45
2019-01-02T04:54:21.026Z,2.46
2019-01-02T04:56:51.953Z,2.48
2019-01-02T04:59:22.873Z,2.45
2019-01-02T05:01:53.805Z,2.48
2019-01-02T05:04:24.730Z,2.59
2019-01-02T05:06:55.600Z,2.50
2019-01-02T05:09:26.691Z,2.43
2019-01-02T05:11:57.588Z,2.41
2019-01-02T05:14:28.755Z,2.36
2019-01-02T05:16:59.668Z,2.35
2019-01-02T05:19:30.634Z,2.37
2019-01-02T05:22:01.604Z,2.31
2019-01-02T05:24:32.548Z,2.32
2019-01-02T05:27:03.407Z,2.34
2019-01-02T05:29:34.318Z,2.38
2019-01-02T05:32:05.542Z,2.28
2019-01-02T05:34:36.523Z,2.39
2019-01-02T05:37:07.430Z,2.47
2019-01-02T05:39:38.673Z,2.53
2019-01-02T05:42:09.633Z,2.55
2019-01-02T05:44:40.856Z,2.51
2019-01-02T05:47:11.821Z,2.48
2019-01-02T05:49:42.964Z,2.57
2019-01-02T05:52:13.947Z,2.55
2019-01-02T05:54:44.952Z,2.59
2019-01-02T05:57:15.835Z,2.56
2019-01-02T05:59:46.737Z,2.65
2019-01-02T06:02:17.653Z,2.56
2019-01-02T06:04:48.586Z,2.58
2019-01-02T06:07:19.498Z,2.65
2019-01-02T06:09:50.381Z,2.58
2019-01-02T06:12:21.271Z,2.73
2019-01-02T06:14:52.175Z,2.67
2019-01-02T06:17:23.091Z,2.79
2019-01-02T06:19:53.977Z,2.78
2019-01-02T06:22:25.499Z,2.75
2019-01-02T06:24:56.404Z,2.81
2019-01-02T06:27:27.309Z,2.73
2019-01-02T06:29:58.234Z,2.61
2019-01-02T06:32:29.440Z,2.68
2019-01-02T06:35:00.618Z,2.57
2019-01-02T06:37:31.540Z,2.74
2019-01-02T06:40:02.406Z,2.63
2019-01-02T06:42:33.363Z,2.72
2019-01-02T06:45:04.564Z,2.63
2019-01-02T06:47:35.534Z,2.66
2019-01-02T06:50:09.736Z,2.69
2019-01-02T06:52:40.948Z,2.70
2019-01-02T06:55:11.872Z,2.61
2019-01-02T06:57:42.847Z,2.64
2019-01-02T07:00:22.097Z,2.61
2019-01-02T07:02:53.303Z,2.48
2019-01-02T07:05:24.229Z,2.49
2019-01-02T07:07:55.158Z,2.48
2019-01-02T07:10:26.026Z,2.46
2019-01-02T07:12:56.970Z,2.40
2019-01-02T07:15:27.871Z,2.33
2019-01-02T07:17:58.880Z,2.39
2019-01-02T07:20:29.772Z,2.41
2019-01-02T07:23:00.783Z,2.48
2019-01-02T07:25:32.036Z,2.35
2019-01-02T07:28:03.194Z,2.44
2019-01-02T07:30:34.157Z,2.42
2019-01-02T07:33:05.461Z,2.37
2019-01-02T07:36:16.872Z,2.40
2019-01-02T07:39:26.600Z,2.46
2019-01-02T07:42:46.281Z,2.45
2019-01-02T07:45:50.204Z,2.47
2019-01-02T07:49:39.113Z,2.35
2019-01-02T07:53:06.838Z,2.47
2019-01-02T07:56:29.570Z,2.51
2019-01-02T07:59:30.020Z,2.75
2019-01-02T08:02:43.752Z,3.22
2019-01-02T08:05:53.039Z,3.67
2019-01-02T08:09:37.553Z,4.13
2019-01-02T08:12:58.371Z,4.54
2019-01-02T08:16:31.575Z,4.59
2019-01-02T08:19:53.479Z,4.19
2019-01-02T08:23:25.298Z,4.41
2019-01-02T08:26:36.780Z,4.74
2019-01-02T08:30:22.726Z,5.60
2019-01-02T08:34:09.443Z,6.47
2019-01-02T08:37:30.823Z,6.75
2019-01-02T08:40:44.625Z,7.01
2019-01-02T08:43:57.611Z,6.88
2019-01-02T08:47:33.052Z,7.43
2019-01-02T08:51:02.277Z,7.27
2019-01-02T08:54:05.402Z,6.98
2019-01-02T08:57:41.114Z,7.28
2019-01-02T09:01:05.067Z,7.46
2019-01-02T09:04:43.040Z,6.85
2019-01-02T09:07:58.769Z,6.69
2019-01-02T09:11:34.861Z,6.79
2019-01-02T09:15:14.955Z,6.53
2019-01-02T09:18:50.600Z,6.82
2019-01-02T09:22:34.966Z,6.35
2019-01-02T09:25:57.363Z,6.24
2019-01-02T09:29:55.069Z,6.18
2019-01-02T09:33:52.155Z,6.25
2019-01-02T09:37:47.146Z,6.18
2019-01-02T09:41:32.013Z,5.75
2019-01-02T09:44:57.655Z,5.53
2019-01-02T09:48:36.221Z,5.38
2019-01-02T09:52:01.423Z,5.26
2019-01-02T09:55:43.098Z,5.32
2019-01-02T09:59:42.536Z,5.38
2019-01-02T10:03:14.614Z,5.29
2019-01-02T10:06:25.471Z,5.37
2019-01-02T10:10:05.505Z,5.48
2019-01-02T10:13:54.242Z,5.48
2019-01-02T10:17:33.051Z,5.42
2019-01-02T10:21:12.761Z,5.30
2019-01-02T10:24:22.337Z,5.26
2019-01-02T10:27:46.591Z,5.47
2019-01-02T10:31:16.334Z,5.51
2019-01-02T10:34:32.340Z,5.05
2019-01-02T10:37:51.683Z,5.12
2019-01-02T10:41:28.084Z,5.18
2019-01-02T10:44:38.766Z,5.08
2019-01-02T10:47:55.892Z,5.21
2019-01-02T10:50:58.154Z,5.15
2019-01-02T10:54:44.565Z,5.05
2019-01-02T10:58:08.881Z,4.97
2019-01-02T11:01:13.083Z,4.94
2019-01-02T11:04:35.670Z,5.00
2019-01-02T11:07:45.920Z,4.96
2019-01-02T11:11:06.825Z,5.02
2019-01-02T11:14:45.604Z,5.03
2019-01-02T11:18:28.562Z,4.92
2019-01-02T11:21:55.905Z,4.86
2019-01-02T11:25:18.516Z,4.94
2019-01-02T11:28:55.528Z,4.94
2019-01-02T11:32:47.106Z,4.95
2019-01-02T11:36:42.488Z,4.96
2019-01-02T11:40:04.093Z,4.70
2019-01-02T11:43:44.087Z,4.91
2019-01-02T11:46:15.007Z,4.83
2019-01-02T11:48:45.927Z,4.79
2019-01-02T11:51:17.128Z,4.75
2019-01-02T11:53:48.291Z,4.75
2019-01-02T11:56:19.487Z,4.65
2019-01-02T11:58:50.369Z,4.76
2019-01-02T12:01:21.245Z,4.69
2019-01-02T12:03:52.539Z,4.67
2019-01-02T12:06:23.438Z,4.77
2019-01-02T12:08:54.448Z,4.74
2019-01-02T12:11:25.614Z,4.64
2019-01-02T12:13:56.545Z,4.71
2019-01-02T12:16:27.438Z,4.80
2019-01-02T12:18:58.321Z,4.70
2019-01-02T12:21:29.239Z,4.74
2019-01-02T12:24:00.534Z,4.69
2019-01-02T12:26:31.490Z,4.81
2019-01-02T12:29:02.392Z,4.77
2019-01-02T12:31:33.263Z,4.72
2019-01-02T12:34:05.043Z,4.85
2019-01-02T12:36:35.923Z,4.95
2019-01-02T12:39:08.723Z,4.95
2019-01-02T12:41:39.950Z,4.77
2019-01-02T12:44:10.834Z,4.70
2019-01-02T12:46:41.761Z,4.73
2019-01-02T12:49:12.633Z,4.87
2019-01-02T12:51:43.504Z,4.68
2019-01-02T12:54:14.392Z,4.56
2019-01-02T12:56:45.350Z,4.61
2019-01-02T12:59:26.809Z,4.50
2019-01-02T13:02:55.523Z,4.40
2019-01-02T13:06:03.965Z,4.30
2019-01-02T13:09:27.273Z,4.39
2019-01-02T13:12:42.848Z,4.42
2019-01-02T13:15:56.838Z,4.43
2019-01-02T13:19:15.394Z,4.36
2019-01-02T13:22:49.349Z,4.41
2019-01-02T13:25:41.845Z,4.40
2019-01-02T13:29:04.833Z,4.49
2019-01-02T13:32:26.671Z,4.58
2019-01-02T13:35:57.313Z,4.57
2019-01-02T13:38:56.277Z,4.52
2019-01-02T13:42:10.451Z,4.55
2019-01-02T13:45:29.675Z,4.43
2019-01-02T13:48:44.948Z,4.47
2019-01-02T13:51:34.230Z,4.41
2019-01-02T13:54:05.326Z,4.32
2019-01-02T13:56:38.631Z,4.28
2019-01-02T13:59:09.870Z,4.20
2019-01-02T14:01:41.138Z,4.16
2019-01-02T14:04:12.619Z,4.00
2019-01-02T14:06:43.535Z,4.12
2019-01-02T14:09:14.515Z,4.10
2019-01-02T14:11:45.401Z,3.94
2019-01-02T14:14:16.354Z,3.97
2019-01-02T14:16:47.853Z,4.05
2019-01-02T14:19:18.740Z,4.05
2019-01-02T14:21:49.737Z,3.99
2019-01-02T14:24:20.606Z,3.95
2019-01-02T14:26:51.639Z,3.93
2019-01-02T14:29:22.620Z,3.88
2019-01-02T14:31:53.794Z,4.00
2019-01-02T14:34:24.733Z,3.92
2019-01-02T14:36:55.692Z,3.79
2019-01-02T14:39:26.666Z,3.58
2019-01-02T14:41:57.557Z,3.55
2019-01-02T14:44:28.473Z,3.47
2019-01-02T14:46:59.463Z,3.51
2019-01-02T14:49:30.347Z,3.48
2019-01-02T14:52:01.220Z,3.45
2019-01-02T14:54:32.147Z,3.22
2019-01-02T14:57:03.041Z,3.18
2019-01-02T14:59:35.117Z,3.22
2019-01-02T15:02:05.983Z,3.24
2019-01-02T15:04:36.887Z,3.14
2019-01-02T15:07:07.801Z,3.08
2019-01-02T15:09:38.962Z,3.11
2019-01-02T15:12:09.870Z,2.98
2019-01-02T15:14:40.754Z,2.97
2019-01-02T15:17:11.685Z,2.97
2019-01-02T15:19:42.680Z,2.83
2019-01-02T15:22:13.570Z,2.79
2019-01-02T15:24:49.436Z,2.77
2019-01-02T15:27:17.085Z,2.63
2019-01-02T15:29:48.015Z,2.63
2019-01-02T15:32:18.923Z,2.52
2019-01-02T15:34:49.890Z,2.68
2019-01-02T15:37:20.800Z,2.54
2019-01-02T15:39:51.783Z,2.72
2019-01-02T15:42:22.767Z,2.65
2019-01-02T15:44:53.951Z,2.56
2019-01-02T15:47:24.861Z,2.52
2019-01-02T15:49:55.774Z,2.45
2019-01-02T15:52:26.678Z,2.35
2019-01-02T15:54:57.591Z,2.30
2019-01-02T15:57:28.451Z,2.33
2019-01-02T15:59:59.342Z,2.27
2019-01-02T16:02:30.293Z,2.17
2019-01-02T16:05:01.531Z,1.98
2019-01-02T16:07:32.903Z,1.92
2019-01-02T16:10:04.253Z,1.82
2019-01-02T16:12:35.145Z,1.77
2019-01-02T16:15:06.838Z,1.80
2019-01-02T16:17:39.452Z,1.88
2019-01-02T16:20:12.377Z,1.64
2019-01-02T16:22:43.325Z,1.63
2019-01-02T16:25:14.206Z,1.59
2019-01-02T16:27:45.190Z,1.47
2019-01-02T16:30:16.119Z,1.46
2019-01-02T16:32:47.056Z,1.48
2019-01-02T16:35:17.968Z,1.33
2019-01-02T16:37:48.885Z,1.42
2019-01-02T16:40:19.807Z,1.39
2019-01-02T16:42:51.042Z,1.27
2019-01-02T16:45:22.255Z,1.32
2019-01-02T16:47:53.128Z,1.22
2019-01-02T16:50:23.995Z,1.43
2019-01-02T16:52:55.204Z,1.38
2019-01-02T16:55:26.111Z,1.40
2019-01-02T16:57:57.085Z,1.40
2019-01-02T17:00:28.021Z,1.27
2019-01-02T17:02:58.933Z,1.19
2019-01-02T17:05:29.942Z,1.10
2019-01-02T17:08:01.246Z,1.20
2019-01-02T17:10:32.232Z,1.09
2019-01-02T17:13:03.139Z,1.06
2019-01-02T17:15:34.013Z,1.19
2019-01-02T17:18:04.943Z,1.14
2019-01-02T17:20:35.858Z,1.00
2019-01-02T17:23:07.105Z,0.99
2019-01-02T17:25:38.097Z,1.06
2019-01-02T17:28:09.064Z,1.03
2019-01-02T17:30:40.068Z,1.01
2019-01-02T17:33:10.989Z,1.14
2019-01-02T17:35:41.889Z,1.08
2019-01-02T17:38:12.800Z,0.98
2019-01-02T17:40:43.670Z,0.91
2019-01-02T17:43:14.593Z,0.87
2019-01-02T17:45:45.580Z,0.94
2019-01-02T17:48:16.874Z,0.84
2019-01-02T17:50:47.793Z,0.70
2019-01-02T17:53:19.015Z,0.68
2019-01-02T17:55:49.927Z,0.81
2019-01-02T17:58:21.166Z,0.72
2019-01-02T18:00:52.146Z,0.66
2019-01-02T18:03:23.047Z,0.69
2019-01-02T18:05:53.953Z,0.55
2019-01-02T18:08:24.967Z,0.67
2019-01-02T18:10:55.837Z,0.54
2019-01-02T18:13:26.715Z,0.54
2019-01-02T18:15:57.727Z,0.62
2019-01-02T18:18:28.599Z,0.64
2019-01-02T18:20:59.467Z,0.61
2019-01-02T18:23:30.402Z,0.69
2019-01-02T18:26:01.275Z,0.63
2019-01-02T18:28:32.447Z,0.52
2019-01-02T18:31:03.651Z,0.48
2019-01-02T18:33:34.524Z,0.48
2019-01-02T18:36:05.444Z,0.57
2019-01-02T18:38:36.370Z,0.48
2019-01-02T18:41:07.253Z,0.41
2019-01-02T18:43:38.182Z,0.41
2019-01-02T18:46:09.082Z,0.61
2019-01-02T18:48:40.361Z,0.45
2019-01-02T18:51:11.227Z,0.43
2019-01-02T18:53:42.092Z,0.39
2019-01-02T18:56:12.991Z,0.37
2019-01-02T18:58:44.288Z,0.40
2019-01-02T19:01:18.343Z,0.33
2019-01-02T19:03:49.334Z,0.29
2019-01-02T19:06:20.635Z,0.20
2019-01-02T19:08:52.178Z,0.20
2019-01-02T19:11:23.142Z,0.28
2019-01-02T19:13:54.076Z,0.33
2019-01-02T19:16:24.973Z,0.33
2019-01-02T19:18:55.881Z,0.29
2019-01-02T19:21:26.789Z,0.29
2019-01-02T19:23:57.654Z,0.43
2019-01-02T19:26:28.562Z,0.43
2019-01-02T19:28:59.734Z,0.41
2019-01-02T19:31:31.258Z,0.36
2019-01-02T19:34:02.160Z,0.37
2019-01-02T19:36:34.969Z,0.49
2019-01-02T19:39:08.464Z,0.40
2019-01-02T19:41:39.415Z,0.52
2019-01-02T19:44:10.430Z,0.49
2019-01-02T19:46:41.821Z,0.35
2019-01-02T19:49:13.056Z,0.29
2019-01-02T19:51:43.991Z,0.20
2019-01-02T19:54:15.676Z,0.23
2019-01-02T19:56:47.352Z,0.23
2019-01-02T19:59:19.419Z,0.13
2019-01-02T20:01:51.177Z,0.05
2019-01-02T20:04:22.635Z,-0.06
2019-01-02T20:06:54.062Z,0.07
2019-01-02T20:09:25.715Z,-0.01
2019-01-02T20:11:58.284Z,-0.14
2019-01-02T20:14:30.011Z,-0.20
2019-01-02T20:17:01.402Z,-0.25
2019-01-02T20:19:33.083Z,-0.36
2019-01-02T20:22:04.815Z,-0.39
2019-01-02T20:24:36.759Z,-0.38
2019-01-02T20:27:08.693Z,-0.54
2019-01-02T20:29:40.961Z,-0.56
2019-01-02T20:32:12.839Z,-0.58
2019-01-02T20:34:44.338Z,-0.52
2019-01-02T20:37:16.169Z,-0.49
2019-01-02T20:39:48.173Z,-0.62
2019-01-02T20:42:21.107Z,-0.71
2019-01-02T20:44:52.780Z,-0.73
2019-01-02T20:47:24.690Z,-0.81
2019-01-02T20:49:56.512Z,-0.77
2019-01-02T20:52:28.479Z,-0.87
2019-01-02T20:54:59.988Z,-0.96
2019-01-02T20:57:31.583Z,-0.99
2019-01-02T21:00:02.878Z,-1.03
2019-01-02T21:02:33.981Z,-1.08
2019-01-02T21:05:05.129Z,-1.13
2019-01-02T21:07:36.432Z,-1.15
2019-01-02T21:10:09.484Z,-1.13
2019-01-02T21:12:40.381Z,-1.06
2019-01-02T21:15:11.431Z,-1.09
2019-01-02T21:17:42.462Z,-0.98
2019-01-02T21:20:13.345Z,-0.97
2019-01-02T21:22:44.267Z,-0.96
2019-01-02T21:25:15.319Z,-0.94
2019-01-02T21:27:46.227Z,-0.90
2019-01-02T21:30:17.120Z,-1.00
2019-01-02T21:32:48.328Z,-1.02
2019-01-02T21:35:19.530Z,-1.05
2019-01-02T21:37:50.443Z,-1.09
2019-01-02T21:40:21.470Z,-1.03
2019-01-02T21:42:52.344Z,-0.94
2019-01-02T21:45:23.231Z,-1.06
2019-01-02T21:47:54.184Z,-1.12
2019-01-02T21:50:25.108Z,-1.07
2019-01-02T21:52:56.398Z,-1.14
2019-01-02T21:55:27.360Z,-1.07
2019-01-02T21:57:58.266Z,-1.15
2019-01-02T22:00:29.238Z,-1.12
2019-01-02T22:03:00.215Z,-1.14
2019-01-02T22:05:31.089Z,-1.14
2019-01-02T22:08:02.290Z,-1.12
2019-01-02T22:10:33.317Z,-1.19
2019-01-02T22:13:04.589Z,-1.20
2019-01-02T22:15:35.760Z,-1.27
2019-01-02T22:18:06.738Z,-1.20
2019-01-02T22:20:37.661Z,-1.28
2019-01-02T22:23:08.576Z,-1.39
2019-01-02T22:25:39.552Z,-1.47
2019-01-02T22:28:10.756Z,-1.55
2019-01-02T22:30:41.661Z,-1.59
2019-01-02T22:33:12.965Z,-1.65
2019-01-02T22:35:43.829Z,-1.66
2019-01-02T22:38:14.741Z,-1.66
2019-01-02T22:40:46.001Z,-1.72
2019-01-02T22:43:16.893Z,-1.74
2019-01-02T22:45:48.136Z,-1.76
2019-01-02T22:48:19.135Z,-1.80
2019-01-02T22:50:50.045Z,-1.86
2019-01-02T22:53:21.047Z,-1.91
2019-01-02T22:55:52.123Z,-1.94
2019-01-02T22:58:23.054Z,-1.97
2019-01-02T23:01:19.415Z,-1.98
2019-01-02T23:03:59.504Z,-1.95
2019-01-02T23:06:48.037Z,-1.99
2019-01-02T23:09:36.285Z,-1.99
2019-01-02T23:12:24.702Z,-1.98
2019-01-02T23:15:32.780Z,-2.01
2019-01-02T23:18:25.263Z,-1.99
2019-01-02T23:21:13.596Z,-2.09
2019-01-02T23:24:03.364Z,-2.11
2019-01-02T23:26:52.312Z,-2.16
2019-01-02T23:29:44.861Z,-2.17
2019-01-02T23:32:37.892Z,-2.20
2019-01-02T23:35:42.377Z,-2.22
2019-01-02T23:38:35.087Z,-2.21
2019-01-02T23:41:34.005Z,-2.17
2019-01-02T23:44:39.044Z,-2.23
2019-01-02T23:47:29.140Z,-2.24
2019-01-02T23:50:19.193Z,-2.23
2019-01-02T23:53:21.146Z,-2.28
2019-01-02T23:56:19.701Z,-2.31
2019-01-02T23:59:08.160Z,-2.26
